Birch River, West Virginia
Current Conditions -  °F | °C
As of 9:15 AM on Sunday 25 Jan 2015 (Local Time) from KW22 Reporting Station
Haze Haze  
Wind Chill: 28°   Ceiling: 3200
Heat Index: 34°   Visibility: 5mi
Dew Point: 32°   Wind: 7mph
Humidity: 93%   Direction: 190°S
Pressure: 29.78"   Gusts: NA
Location:  38.5°N, 80.75°W
Report Text: KW22 251415Z AUTO 19006KT 5SM BR OVC032 01/00 A2978 RMK AO2
Loading
Personal Weather Stations






























Interactive Weather Map New forecast layout! Learn more

10-Day Weather Forecast

Advertisements
Track Severe Weather on mobile